Time;durP1;ratioP1;P1;durP2;ratioP2;P2;SDS_P1;SDS_P2;PMS_P1;PMS_P2;Temp;Humidity;BMP_temperature;BMP_pressure;BME280_temperature;BME280_humidity;BME280_pressure;Samples;Min_cycle;Max_cycle;Signal;HPM_P1;HPM_P2
2023/10/05 00:02:08;;;;;;;8.82;2.25;;;;;;;11.75;100.00;102219.00;4972033;28;20026;-87
2023/10/05 00:04:41;;;;;;;11.45;1.92;;;;;;;11.77;100.00;102225.81;4973777;28;20489;-86
2023/10/05 00:07:11;;;;;;;8.57;1.98;;;;;;;11.78;100.00;102216.69;4974244;28;20078;-87
2023/10/05 00:09:38;;;;;;;6.95;2.10;;;;;;;11.77;100.00;102223.13;4972931;28;20063;-86
2023/10/05 00:12:07;;;;;;;7.97;2.00;;;;;;;11.81;100.00;102226.97;4975088;28;20516;-87
2023/10/05 00:14:35;;;;;;;7.10;1.93;;;;;;;11.80;100.00;102229.88;4975855;28;20042;-87
2023/10/05 00:17:01;;;;;;;8.30;1.90;;;;;;;11.81;100.00;102236.91;4975786;28;20781;-87
2023/10/05 00:19:28;;;;;;;7.60;1.90;;;;;;;11.82;100.00;102244.72;4976978;28;20074;-87
2023/10/05 00:21:57;;;;;;;20.70;2.53;;;;;;;11.79;100.00;102236.31;4949206;28;20443;-86
2023/10/05 00:24:32;;;;;;;9.27;1.65;;;;;;;11.80;100.00;102240.63;4985022;28;20031;-86
2023/10/05 00:26:58;;;;;;;6.38;1.48;;;;;;;11.77;100.00;102246.47;4974089;28;20042;-87
2023/10/05 00:29:39;;;;;;;7.50;1.97;;;;;;;11.75;100.00;102241.34;4973438;28;20374;-87
2023/10/05 00:32:08;;;;;;;7.10;2.03;;;;;;;11.76;100.00;102250.19;4972637;28;20035;-87
2023/10/05 00:34:33;;;;;;;7.60;1.85;;;;;;;11.73;100.00;102240.75;4973789;28;20426;-87
2023/10/05 00:36:59;;;;;;;5.60;1.90;;;;;;;11.74;100.00;102242.38;4969249;28;20023;-87
2023/10/05 00:39:29;;;;;;;10.00;1.67;;;;;;;11.77;100.00;102255.34;4963319;28;20034;-86
2023/10/05 00:44:30;;;;;;;3.95;1.75;;;;;;;11.74;100.00;102254.97;4974189;28;20039;-86
2023/10/05 00:47:07;;;;;;;8.95;1.90;;;;;;;11.72;100.00;102255.22;4973560;28;20050;-86
2023/10/05 00:50:11;;;;;;;10.23;1.90;;;;;;;11.71;100.00;102264.31;4973622;28;20027;-86
2023/10/05 00:52:33;;;;;;;6.63;1.60;;;;;;;11.68;100.00;102259.41;4968845;28;20137;-86
2023/10/05 00:55:06;;;;;;;9.50;2.10;;;;;;;11.66;100.00;102253.44;4973442;28;20027;-86
2023/10/05 00:57:33;;;;;;;10.37;2.00;;;;;;;11.68;100.00;102253.22;4973042;28;20401;-87
2023/10/05 01:02:36;;;;;;;4.82;1.85;;;;;;;11.65;100.00;102260.69;4977831;28;20042;-86
2023/10/05 01:05:15;;;;;;;9.13;1.80;;;;;;;11.64;100.00;102264.41;4972596;28;20039;-86
2023/10/05 01:07:49;;;;;;;6.78;1.85;;;;;;;11.62;100.00;102252.25;4973927;28;20433;-86
2023/10/05 01:12:50;;;;;;;7.32;1.60;;;;;;;11.54;100.00;102264.16;4972029;28;20410;-87
2023/10/05 01:15:30;;;;;;;12.07;2.17;;;;;;;11.51;100.00;102262.75;4977999;28;20030;-87
2023/10/05 01:17:56;;;;;;;11.70;1.97;;;;;;;11.50;100.00;102257.63;4970891;28;20476;-87
2023/10/05 01:22:48;;;;;;;9.40;2.10;;;;;;;11.49;100.00;102254.09;4972986;28;20042;-86
2023/10/05 01:25:14;;;;;;;7.97;1.88;;;;;;;11.49;100.00;102250.59;4972751;28;20409;-86
2023/10/05 01:27:43;;;;;;;11.95;1.70;;;;;;;11.47;100.00;102260.75;4971587;28;20602;-86
2023/10/05 01:30:12;;;;;;;11.57;2.50;;;;;;;11.46;100.00;102259.91;4973265;28;20091;-86
2023/10/05 01:32:37;;;;;;;10.85;2.42;;;;;;;11.45;100.00;102252.91;4974044;28;20103;-86
2023/10/05 01:35:07;;;;;;;9.17;2.20;;;;;;;11.48;100.00;102248.97;4980174;28;20018;-86
2023/10/05 01:37:33;;;;;;;9.27;1.70;;;;;;;11.48;100.00;102247.09;4969358;28;20049;-86
2023/10/05 01:39:59;;;;;;;13.43;2.33;;;;;;;11.49;100.00;102258.66;4973430;28;20031;-86
2023/10/05 01:42:25;;;;;;;9.35;1.90;;;;;;;11.51;100.00;102253.84;4972389;28;20372;-86
2023/10/05 01:44:50;;;;;;;7.37;1.90;;;;;;;11.52;100.00;102244.75;4972915;28;20106;-86
2023/10/05 01:47:17;;;;;;;11.15;2.03;;;;;;;11.51;100.00;102253.84;4972640;28;20062;-85
2023/10/05 01:49:43;;;;;;;10.50;2.40;;;;;;;11.50;100.00;102241.50;4972403;28;20625;-86
2023/10/05 01:52:09;;;;;;;7.40;2.20;;;;;;;11.51;100.00;102243.94;4972278;28;20290;-86
2023/10/05 01:54:35;;;;;;;7.57;2.20;;;;;;;11.52;100.00;102239.38;4970367;28;20034;-86
2023/10/05 01:57:07;;;;;;;13.80;2.00;;;;;;;11.48;100.00;102230.19;4972311;28;20042;-87
2023/10/05 01:59:34;;;;;;;13.05;2.10;;;;;;;11.50;100.00;102230.78;4972148;28;20078;-86
2023/10/05 02:02:15;;;;;;;12.88;2.45;;;;;;;11.51;100.00;102237.75;4967421;28;20110;-87
2023/10/05 02:04:43;;;;;;;7.70;1.98;;;;;;;11.49;100.00;102234.50;4967177;28;20463;-86
2023/10/05 02:07:11;;;;;;;9.52;2.03;;;;;;;11.46;100.00;102241.13;4972194;28;20023;-87
2023/10/05 02:09:38;;;;;;;8.77;2.22;;;;;;;11.46;100.00;102240.31;4970820;28;20047;-86
2023/10/05 02:12:06;;;;;;;13.53;2.10;;;;;;;11.43;100.00;102248.84;4971865;28;20035;-86
2023/10/05 02:14:41;;;;;;;9.93;2.10;;;;;;;11.43;100.00;102235.41;4972230;28;20290;-86
2023/10/05 02:17:07;;;;;;;7.80;2.35;;;;;;;11.39;100.00;102234.22;4969917;28;20509;-86
2023/10/05 02:19:36;;;;;;;8.77;1.90;;;;;;;11.33;100.00;102220.66;4972309;28;20030;-86
2023/10/05 02:22:04;;;;;;;7.53;1.92;;;;;;;11.38;100.00;102222.69;4971102;28;20855;-86
2023/10/05 02:24:30;;;;;;;10.00;2.03;;;;;;;11.33;100.00;102226.03;4971484;28;20031;-86
2023/10/05 02:29:29;;;;;;;10.32;2.40;;;;;;;11.32;100.00;102227.06;4971985;28;20390;-86
2023/10/05 02:32:05;;;;;;;9.07;2.03;;;;;;;11.29;100.00;102230.25;4971225;28;20061;-86
2023/10/05 02:34:44;;;;;;;13.60;2.27;;;;;;;11.29;100.00;102226.72;4970434;28;20038;-86
2023/10/05 02:37:12;;;;;;;10.60;2.20;;;;;;;11.25;100.00;102237.09;4970623;28;20293;-86
2023/10/05 02:39:38;;;;;;;9.60;2.20;;;;;;;11.23;100.00;102225.78;4972202;28;20407;-86
2023/10/05 02:42:06;;;;;;;8.07;2.30;;;;;;;11.18;100.00;102214.91;4971314;28;20037;-86
2023/10/05 02:44:34;;;;;;;11.20;2.20;;;;;;;11.14;100.00;102211.03;4971219;28;20478;-87
2023/10/05 02:47:00;;;;;;;4.43;1.70;;;;;;;11.08;100.00;102218.13;4970965;28;20027;-86
2023/10/05 02:49:26;;;;;;;10.68;2.00;;;;;;;10.99;100.00;102203.41;4971500;28;20065;-86
2023/10/05 02:51:52;;;;;;;7.80;2.10;;;;;;;11.01;100.00;102207.50;4968865;28;20783;-86
2023/10/05 02:54:22;;;;;;;9.27;2.13;;;;;;;10.99;100.00;102204.22;4969989;28;20298;-86
2023/10/05 02:56:48;;;;;;;12.18;1.90;;;;;;;10.97;100.00;102205.50;4969722;28;20042;-85
2023/10/05 02:59:15;;;;;;;8.18;2.05;;;;;;;10.94;100.00;102211.31;4971984;28;20057;-86
2023/10/05 03:01:42;;;;;;;10.07;2.22;;;;;;;10.89;100.00;102209.31;4970502;28;20081;-87
2023/10/05 03:04:21;;;;;;;11.95;2.50;;;;;;;10.92;100.00;102206.19;4972471;28;20106;-86
2023/10/05 03:06:50;;;;;;;10.73;2.22;;;;;;;10.95;100.00;102218.31;4970553;28;20038;-86
2023/10/05 03:09:18;;;;;;;10.52;2.00;;;;;;;10.98;100.00;102215.97;4972042;28;20410;-86
2023/10/05 03:11:46;;;;;;;7.50;2.43;;;;;;;11.00;100.00;102211.22;4970575;28;20502;-86
2023/10/05 03:14:12;;;;;;;10.52;2.65;;;;;;;11.00;100.00;102200.50;4971519;28;20031;-86
2023/10/05 03:16:47;;;;;;;10.30;2.22;;;;;;;11.00;100.00;102200.50;4968437;28;20029;-86
2023/10/05 03:19:20;;;;;;;10.27;2.50;;;;;;;11.01;100.00;102202.13;4970697;28;20035;-86
2023/10/05 03:21:46;;;;;;;13.07;2.10;;;;;;;11.02;100.00;102198.41;4972445;28;20035;-86
2023/10/05 03:24:14;;;;;;;10.18;2.88;;;;;;;11.01;100.00;102199.44;4973432;28;20027;-86
2023/10/05 03:26:40;;;;;;;11.97;2.10;;;;;;;10.99;100.00;102203.41;4973590;28;20031;-87
2023/10/05 03:29:07;;;;;;;11.68;2.40;;;;;;;11.00;100.00;102200.50;4974900;28;20039;-88
2023/10/05 03:31:37;;;;;;;8.40;2.10;;;;;;;10.99;100.00;102198.84;4968459;28;20110;-87
2023/10/05 03:34:07;;;;;;;8.93;2.35;;;;;;;10.98;100.00;102193.72;4960267;28;20548;-87
2023/10/05 03:36:33;;;;;;;9.05;1.98;;;;;;;10.98;100.00;102199.91;4977706;28;20049;-87
2023/10/05 03:39:03;;;;;;;7.10;2.22;;;;;;;10.97;100.00;102200.13;4981913;28;20034;-88
2023/10/05 03:41:28;;;;;;;9.25;2.42;;;;;;;10.95;100.00;102208.41;4973056;28;20092;-88
2023/10/05 03:44:01;;;;;;;10.83;2.70;;;;;;;10.93;100.00;102191.72;4976215;28;20117;-87
2023/10/05 03:46:26;;;;;;;9.23;1.98;;;;;;;10.93;100.00;102198.94;4972873;28;20038;-87
2023/10/05 03:48:59;;;;;;;7.33;2.33;;;;;;;10.85;100.00;102203.59;4956637;28;20030;-87
2023/10/05 03:51:25;;;;;;;14.75;2.72;;;;;;;10.84;100.00;102196.59;4986345;28;20031;-87
2023/10/05 03:53:51;;;;;;;9.00;2.60;;;;;;;10.86;100.00;102199.03;4976118;28;20037;-87
2023/10/05 03:56:19;;;;;;;15.30;2.70;;;;;;;10.86;100.00;102201.72;4974818;28;20027;-88
2023/10/05 03:58:45;;;;;;;7.60;2.50;;;;;;;10.83;100.00;102200.31;4974620;28;20056;-87
2023/10/05 04:01:12;;;;;;;8.43;2.42;;;;;;;10.80;100.00;102206.13;4975053;28;20027;-87
2023/10/05 04:03:38;;;;;;;9.57;2.40;;;;;;;10.79;100.00;102192.91;4976813;28;20034;-87
2023/10/05 04:06:16;;;;;;;7.38;2.45;;;;;;;10.77;100.00;102192.34;4977375;28;20018;-88
2023/10/05 04:08:44;;;;;;;9.10;2.13;;;;;;;10.71;100.00;102189.53;4976045;28;20037;-87
2023/10/05 04:11:11;;;;;;;13.10;2.87;;;;;;;10.71;100.00;102192.22;4977763;28;20309;-87
2023/10/05 04:13:38;;;;;;;11.77;2.38;;;;;;;10.69;100.00;102188.09;4975422;28;20043;-87
2023/10/05 04:16:07;;;;;;;10.73;2.50;;;;;;;10.68;100.00;102192.66;4973751;28;20030;-87
2023/10/05 04:18:32;;;;;;;9.48;2.35;;;;;;;10.63;100.00;102197.06;4974655;28;20038;-87
2023/10/05 04:20:58;;;;;;;12.13;2.50;;;;;;;10.58;100.00;102195.84;4972330;28;20035;-90
2023/10/05 04:23:27;;;;;;;8.57;2.00;;;;;;;10.55;100.00;102196.28;4975761;28;20030;-90
2023/10/05 04:25:54;;;;;;;10.50;2.53;;;;;;;10.52;100.00;102193.25;4973908;28;20028;-90
2023/10/05 04:28:36;;;;;;;9.73;2.50;;;;;;;10.52;100.00;102194.06;4973945;28;20540;-88
2023/10/05 04:31:08;;;;;;;7.22;2.47;;;;;;;10.53;100.00;102205.63;4974467;28;20073;-87
2023/10/05 04:33:33;;;;;;;12.30;2.25;;;;;;;10.52;100.00;102203.97;4973446;28;20030;-88
2023/10/05 04:35:59;;;;;;;12.23;2.50;;;;;;;10.50;100.00;102206.06;4974286;28;20030;-88
2023/10/05 04:38:25;;;;;;;6.10;2.50;;;;;;;10.49;100.00;102209.78;4974423;28;20097;-88
2023/10/05 04:40:54;;;;;;;17.05;2.92;;;;;;;10.51;100.00;102207.69;4974041;28;20478;-88
2023/10/05 04:43:21;;;;;;;8.80;2.40;;;;;;;10.48;100.00;102210.81;4973849;28;20038;-87
2023/10/05 04:45:47;;;;;;;12.50;2.55;;;;;;;10.45;100.00;102204.84;4973574;28;20117;-88
2023/10/05 04:48:12;;;;;;;19.07;3.20;;;;;;;10.43;100.00;102204.25;4974289;28;20056;-88
2023/10/05 04:50:41;;;;;;;10.60;2.92;;;;;;;10.47;100.00;102206.50;4973207;28;20030;-88
2023/10/05 04:53:09;;;;;;;9.82;3.20;;;;;;;10.43;100.00;102201.56;4973316;28;20066;-88
2023/10/05 04:55:42;;;;;;;7.83;2.60;;;;;;;10.48;100.00;102210.81;4971052;28;20029;-90
2023/10/05 04:58:20;;;;;;;12.53;2.90;;;;;;;10.47;100.00;102207.34;4973237;28;20634;-89
2023/10/05 05:03:32;;;;;;;8.63;2.30;;;;;;;10.40;100.00;102198.53;4963310;28;20066;-89
2023/10/05 05:08:31;;;;;;;16.85;3.25;;;;;;;10.27;100.00;102191.41;4973808;28;20026;-90
2023/10/05 05:10:58;;;;;;;16.23;2.97;;;;;;;10.25;100.00;102190.81;4973645;28;20113;-89
2023/10/05 05:13:27;;;;;;;14.98;3.00;;;;;;;10.28;100.00;102212.66;4973746;28;20391;-88
2023/10/05 05:15:52;;;;;;;17.67;2.90;;;;;;;10.34;100.00;102208.25;4990088;28;20022;-88
2023/10/05 05:18:19;;;;;;;10.47;2.90;;;;;;;10.35;100.00;102204.53;4978748;28;20065;-91
2023/10/05 05:20:45;;;;;;;18.95;3.00;;;;;;;10.39;100.00;102204.94;4972114;28;20023;-89
2023/10/05 05:23:13;;;;;;;10.20;3.00;;;;;;;10.41;100.00;102209.03;4973360;28;20474;-88
2023/10/05 05:25:39;;;;;;;8.40;2.63;;;;;;;10.43;100.00;102208.81;4973474;28;20110;-88
2023/10/05 05:28:05;;;;;;;10.30;2.90;;;;;;;10.47;100.00;102217.22;4973255;28;20023;-87
2023/10/05 05:30:32;;;;;;;8.87;3.10;;;;;;;10.47;100.00;102218.06;4972805;28;21003;-89
2023/10/05 05:32:58;;;;;;;10.15;3.17;;;;;;;10.45;100.00;102215.59;4972811;28;20389;-90
2023/10/05 05:35:23;;;;;;;8.70;2.92;;;;;;;10.50;100.00;102216.78;4970792;28;20122;-89
2023/10/05 05:37:49;;;;;;;10.83;2.70;;;;;;;10.53;100.00;102217.13;4974061;28;20033;-88
2023/10/05 05:40:14;;;;;;;11.07;2.90;;;;;;;10.54;100.00;102216.09;4973778;28;20045;-88
2023/10/05 05:42:40;;;;;;;8.73;2.93;;;;;;;10.57;100.00;102228.25;4973199;28;20502;-89
2023/10/05 05:45:15;;;;;;;14.32;3.15;;;;;;;10.60;100.00;102227.78;4971842;28;20042;-88
2023/10/05 05:47:45;;;;;;;8.73;2.70;;;;;;;10.63;100.00;102229.22;4970558;28;20390;-89
2023/10/05 05:50:17;;;;;;;11.10;2.90;;;;;;;10.71;100.00;102224.38;4973503;28;20035;-88
2023/10/05 05:52:45;;;;;;;11.45;3.05;;;;;;;10.78;100.00;102236.88;4953962;28;20027;-88
2023/10/05 05:55:13;;;;;;;8.85;2.78;;;;;;;10.77;100.00;102227.22;4970691;28;20406;-89
2023/10/05 05:57:38;;;;;;;8.48;2.38;;;;;;;10.84;100.00;102227.94;4972387;28;20030;-91
2023/10/05 06:00:17;;;;;;;15.17;2.97;;;;;;;10.86;100.00;102233.88;4971968;28;20038;-89
2023/10/05 06:02:43;;;;;;;9.93;2.97;;;;;;;10.94;100.00;102236.28;4972487;28;20027;-88
2023/10/05 06:05:09;;;;;;;9.47;2.63;;;;;;;10.97;100.00;102233.13;4972829;28;20077;-89
2023/10/05 06:07:39;;;;;;;8.05;2.60;;;;;;;11.03;100.00;102231.44;4974305;28;20015;-89
2023/10/05 06:10:13;;;;;;;13.40;3.03;;;;;;;11.04;100.00;102233.06;4975505;28;20027;-89
2023/10/05 06:12:42;;;;;;;10.38;3.08;;;;;;;11.08;100.00;102230.72;4970282;28;20027;-89
2023/10/05 06:15:09;;;;;;;12.68;3.10;;;;;;;11.08;100.00;102241.47;4968276;28;20114;-91
2023/10/05 06:17:35;;;;;;;9.63;2.58;;;;;;;11.07;100.00;102246.00;4974235;28;20038;-89
2023/10/05 06:20:13;;;;;;;10.37;2.73;;;;;;;11.10;100.00;102239.38;4977729;28;20023;-92
2023/10/05 06:22:41;;;;;;;9.77;3.05;;;;;;;11.15;100.00;102252.91;4969270;28;20034;-88
2023/10/05 06:25:08;;;;;;;10.35;3.20;;;;;;;11.12;100.00;102248.03;4972556;28;20042;-90
2023/10/05 06:27:33;;;;;;;10.57;3.05;;;;;;;11.17;100.00;102256.19;4973110;28;20027;-88
2023/10/05 06:29:58;;;;;;;11.90;2.73;;;;;;;11.20;100.00;102256.56;4980604;28;20027;-90
2023/10/05 06:32:24;;;;;;;12.13;3.17;;;;;;;11.30;100.00;102260.56;4980079;28;20427;-88
2023/10/05 06:34:50;;;;;;;9.18;3.03;;;;;;;11.37;100.00;102269.34;4975950;28;20074;-91
2023/10/05 06:37:15;;;;;;;15.97;3.37;;;;;;;11.42;100.00;102260.63;4978385;28;20031;-93
2023/10/05 06:39:40;;;;;;;10.60;3.03;;;;;;;11.51;100.00;102269.97;4974860;28;20081;-86
2023/10/05 06:42:06;;;;;;;9.67;2.93;;;;;;;11.54;100.00;102264.16;4987028;28;20027;-91
2023/10/05 06:44:33;;;;;;;10.25;2.85;;;;;;;11.64;100.00;102269.78;4986322;28;20062;-92
2023/10/05 06:46:59;;;;;;;10.43;3.22;;;;;;;11.74;100.00;102271.91;4973239;28;20031;-92
2023/10/05 06:49:25;;;;;;;11.60;3.33;;;;;;;11.78;100.00;102269.59;4972761;28;20034;-89
2023/10/05 06:51:51;;;;;;;12.50;2.70;;;;;;;11.84;100.00;102273.22;4971096;28;20031;-85
2023/10/05 06:54:17;;;;;;;15.07;3.33;;;;;;;11.84;100.00;102274.03;4966099;28;20116;-86
2023/10/05 06:56:48;;;;;;;13.32;3.30;;;;;;;11.89;100.00;102284.88;4963562;28;20019;-86
2023/10/05 06:59:14;;;;;;;11.55;3.42;;;;;;;11.94;100.00;102290.41;4967826;28;20035;-85
2023/10/05 07:01:39;;;;;;;15.63;3.37;;;;;;;11.99;100.00;102297.78;4970383;28;20361;-86
2023/10/05 07:04:07;;;;;;;13.57;3.53;;;;;;;12.05;100.00;102293.38;4971611;28;20030;-88
2023/10/05 07:06:35;;;;;;;11.43;3.28;;;;;;;12.09;100.00;102303.41;4976605;28;20070;-88
2023/10/05 07:14:11;;;;;;;11.10;3.00;;;;;;;12.14;100.00;102299.22;5806544;23;20357;-88
2023/10/05 07:16:36;;;;;;;12.80;3.65;;;;;;;12.26;100.00;102314.28;5035081;28;20091;-88
2023/10/05 07:19:02;;;;;;;9.33;2.90;;;;;;;12.35;100.00;102322.03;5035435;28;20041;-87
2023/10/05 07:21:27;;;;;;;11.60;2.83;;;;;;;12.38;100.00;102318.88;5028134;28;20033;-89
2023/10/05 07:23:52;;;;;;;8.43;3.00;;;;;;;12.49;100.00;102325.31;5007591;28;20185;-89
2023/10/05 07:26:18;;;;;;;14.10;3.27;;;;;;;12.59;100.00;102319.34;5009831;28;20018;-88
2023/10/05 07:28:43;;;;;;;10.65;3.08;;;;;;;12.67;100.00;102322.50;5004448;28;20034;-89
2023/10/05 07:31:09;;;;;;;8.03;2.73;;;;;;;12.72;100.00;102322.56;5006512;28;20030;-89
2023/10/05 07:33:35;;;;;;;11.20;3.50;;;;;;;12.80;100.00;102329.47;5007728;28;20030;-89
2023/10/05 07:36:02;;;;;;;12.52;3.00;;;;;;;12.90;100.00;102336.13;5007179;28;20167;-89
2023/10/05 07:38:28;;;;;;;9.40;3.13;;;;;;;13.02;100.00;102345.00;5015896;28;20025;-91
2023/10/05 07:40:54;;;;;;;12.90;2.60;;;;;;;13.10;100.00;102343.81;5009023;28;20515;-88
2023/10/05 07:43:21;;;;;;;9.90;2.80;;;;;;;13.21;100.00;102352.91;5008417;28;20034;-89
2023/10/05 07:48:47;;;;;;;8.48;2.60;;;;;;;13.21;100.00;102336.75;5842546;22;20105;-88
2023/10/05 07:51:13;;;;;;;14.85;3.80;;;;;;;13.34;100.00;102336.47;4978018;28;20039;-91
2023/10/05 07:53:39;;;;;;;12.52;3.05;;;;;;;13.51;100.00;102366.19;4986714;28;20070;-88
2023/10/05 07:56:05;;;;;;;16.95;3.05;;;;;;;13.55;100.00;102350.38;4989782;28;20034;-89
2023/10/05 07:58:31;;;;;;;13.73;3.77;;;;;;;13.65;100.00;102349.75;4994270;28;20035;-88
2023/10/05 08:00:57;;;;;;;7.70;2.77;;;;;;;13.67;100.00;102350.31;4987841;28;20089;-88
2023/10/05 08:03:23;;;;;;;10.17;3.17;;;;;;;13.81;100.00;102353.53;4970359;28;20298;-87
2023/10/05 08:05:49;;;;;;;9.93;3.03;;;;;;;13.94;100.00;102355.91;4978295;28;20037;-88
2023/10/05 08:08:14;;;;;;;12.70;2.70;;;;;;;14.07;100.00;102366.38;4972210;28;20026;-88
2023/10/05 08:10:40;;;;;;;7.03;2.70;;;;;;;14.13;100.00;102367.31;4972417;28;20050;-88
2023/10/05 08:13:05;;;;;;;14.68;2.70;;;;;;;14.17;100.00;102368.44;4976956;28;20073;-90
2023/10/05 08:15:30;;;;;;;5.80;2.70;;;;;;;14.18;100.00;102363.88;4973827;28;20038;-90
2023/10/05 08:17:56;;;;;;;6.37;2.47;;;;;;;14.19;100.00;102373.59;4965937;28;20438;-90
2023/10/05 08:20:24;;;;;;;9.50;2.72;;;;;;;14.19;100.00;102373.59;4973574;28;20054;-90
2023/10/05 08:22:49;;;;;;;5.97;2.67;;;;;;;14.24;100.00;102365.59;4968940;28;20073;-88
2023/10/05 08:25:16;;;;;;;8.37;2.77;;;;;;;14.22;100.00;102370.41;4971630;28;20030;-90
2023/10/05 08:27:48;;;;;;;7.22;2.80;;;;;;;14.21;100.00;102358.00;4969559;28;20030;-89
2023/10/05 08:30:13;;;;;;;12.88;3.22;;;;;;;14.21;100.00;102376.88;4975526;28;20111;-92
2023/10/05 08:32:39;;;;;;;15.17;3.10;;;;;;;14.24;100.00;102379.06;4973854;28;20058;-89
2023/10/05 08:35:26;;;;;;;7.83;2.53;;;;;;;14.27;100.00;102380.47;4966573;28;20400;-90
2023/10/05 08:37:52;;;;;;;10.02;3.03;;;;;;;14.33;100.00;102384.88;4970149;28;20046;-89
2023/10/05 08:41:06;;;;;;;10.68;3.50;;;;;;;14.39;100.00;102384.72;4964544;28;20042;-88
2023/10/05 08:43:10;;;;;;;9.93;3.33;;;;;;;14.58;100.00;102391.72;4966294;28;20098;-89
2023/10/05 08:45:46;;;;;;;11.43;3.20;;;;;;;14.75;100.00;102383.66;4974321;28;20019;-91
2023/10/05 08:48:19;;;;;;;9.03;3.03;;;;;;;14.95;100.00;102388.50;4975208;28;20051;-87
2023/10/05 08:50:51;;;;;;;8.33;2.47;;;;;;;15.08;100.00;102401.63;4971070;28;20306;-93
2023/10/05 08:53:19;;;;;;;17.38;3.20;;;;;;;15.23;100.00;102413.72;4980397;28;20106;-92
2023/10/05 08:55:46;;;;;;;10.30;2.50;;;;;;;15.39;100.00;102410.13;4981436;28;20038;-95
2023/10/05 08:58:18;;;;;;;8.88;2.92;;;;;;;15.56;100.00;102415.44;4975553;28;20494;-93
2023/10/05 09:00:44;;;;;;;9.25;2.85;;;;;;;15.64;100.00;102408.78;4974236;28;20033;-94
2023/10/05 09:06:21;;;;;;;10.50;2.43;;;;;;;15.82;100.00;102417.59;4973019;28;20297;-87
2023/10/05 09:09:14;;;;;;;10.18;2.47;;;;;;;15.93;100.00;102422.09;4974330;28;20128;-93
2023/10/05 09:11:39;;;;;;;12.70;3.20;;;;;;;16.00;100.00;102430.78;4968989;28;20255;-89
2023/10/05 09:14:27;;;;;;;11.52;3.63;;;;;;;16.07;100.00;102427.09;4969305;28;20569;-89
2023/10/05 09:17:04;;;;;;;12.57;2.25;;;;;;;16.17;100.00;102437.97;4970242;28;20470;-89
2023/10/05 09:19:29;;;;;;;10.07;2.53;;;;;;;16.24;100.00;102435.91;4973535;28;20058;-89
2023/10/05 09:22:10;;;;;;;10.83;2.63;;;;;;;16.34;100.00;102446.78;4969785;28;20027;-89
2023/10/05 09:24:36;;;;;;;10.15;2.25;;;;;;;16.33;100.00;102458.72;4972972;28;20035;-89
2023/10/05 09:27:16;;;;;;;6.88;2.20;;;;;;;16.30;100.00;102451.09;4972385;28;20022;-90
2023/10/05 09:29:43;;;;;;;11.20;2.50;;;;;;;16.43;100.00;102457.16;5000444;28;20068;-93
2023/10/05 09:32:30;;;;;;;13.70;2.90;;;;;;;16.58;100.00;102459.19;4978675;28;20282;-88
2023/10/05 09:34:56;;;;;;;10.45;2.60;;;;;;;16.56;100.00;102461.31;4965962;28;20034;-90
2023/10/05 09:37:26;;;;;;;7.88;2.20;;;;;;;16.61;100.00;102461.38;4971968;28;20034;-89
2023/10/05 09:39:59;;;;;;;7.80;1.90;;;;;;;16.67;100.00;102454.91;4968259;28;20023;-95
2023/10/05 09:42:27;;;;;;;11.73;2.30;;;;;;;16.70;100.00;102450.88;4970080;28;20031;-92
2023/10/05 09:45:06;;;;;;;11.77;2.30;;;;;;;16.81;100.00;102452.56;4989483;28;20293;-90
2023/10/05 09:47:34;;;;;;;6.75;2.00;;;;;;;16.90;100.00;102445.56;4970426;28;20039;-91
2023/10/05 09:50:01;;;;;;;9.38;2.28;;;;;;;17.04;100.00;102447.88;4963891;28;20118;-90
2023/10/05 09:52:37;;;;;;;10.27;2.58;;;;;;;17.09;100.00;102451.41;4971336;28;20125;-91
2023/10/05 09:55:07;;;;;;;13.32;2.45;;;;;;;17.06;100.00;102441.09;4970562;28;20031;-92
2023/10/05 09:57:41;;;;;;;12.93;2.38;;;;;;;17.04;100.00;102453.28;4969506;28;20054;-89
2023/10/05 10:00:13;;;;;;;6.80;1.93;;;;;;;17.12;100.00;102454.69;4972051;28;20105;-90
2023/10/05 10:02:41;;;;;;;13.60;2.37;;;;;;;17.18;100.00;102453.59;4971657;28;20297;-86
2023/10/05 10:05:30;;;;;;;10.85;2.70;;;;;;;17.23;100.00;102459.91;4972404;28;20030;-87
2023/10/05 10:07:59;;;;;;;11.65;2.13;;;;;;;17.29;100.00;102455.31;4971332;28;20031;-87
2023/10/05 10:10:29;;;;;;;6.38;2.20;;;;;;;17.31;100.00;102455.03;4971512;28;20039;-86
2023/10/05 10:12:56;;;;;;;7.57;2.45;;;;;;;17.30;100.00;102461.53;4977198;28;20045;-89
2023/10/05 10:15:31;;;;;;;7.53;2.20;;;;;;;17.38;100.00;102458.34;4983753;28;20043;-87
2023/10/05 10:18:13;;;;;;;7.47;2.30;;;;;;;17.53;100.00;102460.25;4975166;28;20031;-86
2023/10/05 10:20:39;;;;;;;8.27;2.13;;;;;;;17.66;100.00;102461.69;4967382;28;20309;-86
2023/10/05 10:23:19;;;;;;;9.52;2.20;;;;;;;17.71;100.00;102461.69;4972503;28;20031;-87
2023/10/05 10:25:45;;;;;;;9.30;2.30;;;;;;;17.79;100.00;102449.53;4968353;28;20027;-88
2023/10/05 10:28:17;;;;;;;6.82;2.30;;;;;;;17.82;100.00;102462.53;4958568;28;20668;-86
2023/10/05 10:30:47;;;;;;;5.27;2.20;;;;;;;17.81;100.00;102456.28;4962063;28;20034;-87
2023/10/05 10:33:30;;;;;;;13.60;2.50;;;;;;;17.89;100.00;102451.44;4970273;28;20318;-87
2023/10/05 10:35:57;;;;;;;7.90;2.20;;;;;;;17.91;100.00;102450.06;4969941;28;20081;-87
2023/10/05 10:38:23;;;;;;;7.85;1.90;;;;;;;17.93;100.00;102452.53;4969828;28;20121;-89
2023/10/05 10:41:15;;;;;;;9.05;2.70;;;;;;;18.00;100.00;102453.09;4972930;28;20027;-87
2023/10/05 10:43:55;;;;;;;7.80;2.47;;;;;;;18.01;100.00;102455.56;4967714;28;20038;-87
2023/10/05 10:46:30;;;;;;;9.02;2.05;;;;;;;17.99;100.00;102465.88;4971577;28;20026;-87
2023/10/05 10:48:57;;;;;;;11.37;2.17;;;;;;;18.01;100.00;102452.84;4971305;28;20470;-88
2023/10/05 10:51:24;;;;;;;7.43;2.00;;;;;;;17.99;100.00;102465.88;4971674;28;20820;-88
2023/10/05 10:53:57;;;;;;;9.48;2.03;;;;;;;17.99;100.00;102457.72;4971786;28;20022;-87
2023/10/05 10:56:34;;;;;;;11.05;2.40;;;;;;;18.04;100.00;102456.13;4969402;28;20027;-87
2023/10/05 10:59:10;;;;;;;7.80;2.00;;;;;;;17.99;100.00;102446.06;4969895;28;20548;-87
2023/10/05 11:01:52;;;;;;;11.68;2.20;;;;;;;17.97;100.00;102440.06;4972667;28;20045;-87
2023/10/05 11:04:25;;;;;;;10.17;2.40;;;;;;;17.89;99.73;102441.44;4969646;28;20070;-88
2023/10/05 11:06:56;;;;;;;4.37;2.10;;;;;;;17.81;100.00;102440.03;4972101;28;20348;-88
2023/10/05 11:09:46;;;;;;;10.80;2.22;;;;;;;17.83;100.00;102442.47;4971995;28;20050;-87
2023/10/05 11:12:16;;;;;;;10.77;2.50;;;;;;;17.79;100.00;102441.38;4971390;28;20062;-88
2023/10/05 11:14:43;;;;;;;10.65;2.50;;;;;;;17.79;100.00;102446.81;4971786;28;20047;-88
2023/10/05 11:17:45;;;;;;;7.45;2.15;;;;;;;17.78;100.00;102445.19;4971970;28;20027;-88
2023/10/05 11:20:23;;;;;;;7.47;2.20;;;;;;;17.61;100.00;102442.72;4951246;28;20042;-88
2023/10/05 11:22:55;;;;;;;9.00;2.43;;;;;;;17.67;100.00;102439.75;4971041;28;20717;-89
2023/10/05 11:25:31;;;;;;;8.27;2.40;;;;;;;17.76;100.00;102442.75;4972237;28;20026;-88
2023/10/05 11:27:57;;;;;;;8.95;2.40;;;;;;;17.84;100.00;102441.41;4971527;28;20054;-87
2023/10/05 11:30:26;;;;;;;8.43;2.22;;;;;;;17.89;100.00;102443.31;4971572;28;20482;-88
2023/10/05 11:32:56;;;;;;;8.10;2.73;;;;;;;17.87;100.00;102432.75;4972146;28;20031;-88
2023/10/05 11:35:40;;;;;;;6.93;2.60;;;;;;;17.84;100.00;102435.97;4968369;28;20654;-88
2023/10/05 11:38:06;;;;;;;11.77;2.60;;;;;;;17.89;99.53;102433.28;4975128;28;20038;-88
2023/10/05 11:40:34;;;;;;;10.50;2.03;;;;;;;18.01;98.90;102433.03;4980961;28;20043;-89
2023/10/05 11:43:06;;;;;;;8.63;2.42;;;;;;;18.04;99.02;102434.41;4975320;28;20054;-88
2023/10/05 11:45:34;;;;;;;8.65;2.53;;;;;;;18.12;98.70;102428.44;4978068;28;20027;-88
2023/10/05 11:48:11;;;;;;;10.32;2.47;;;;;;;18.31;97.69;102426.81;4979020;28;20081;-88
2023/10/05 11:50:36;;;;;;;9.57;2.70;;;;;;;18.60;96.24;102431.72;4982746;28;20030;-87
2023/10/05 11:53:10;;;;;;;9.93;3.17;;;;;;;18.77;94.69;102434.09;4978123;28;20046;-88
2023/10/05 11:55:35;;;;;;;11.00;2.75;;;;;;;19.04;94.40;102438.44;4975259;28;20465;-90